Terminal Aerodrome Forecast
Issued by NWS

Home | Current Version | Previous Version | Text Only | Print | Product List | Glossary On
Versions: 1 2 3 4 5 6 7 8 9 10 11 12
622
FTUS44 KTSA 271726
TAFBVO
TAF
KBVO 271726Z 2718/2818 VRB04KT P6SM FEW050 BKN100
     FM272100 VRB05KT P6SM VCTS SCT050CB BKN100
     FM280200 01005KT P6SM BKN050 BKN100
      TEMPO 2808/2812 4SM -TSRA BKN040CB
     FM281200 02005KT P6SM BKN020=

USA.gov is the U.S. government's official web portal to all federal, state and local government web resources and services.